ADDS METAR Data INFO
IDs: Format: Raw Decoded Include TAF

Data at: 1138 UTC 17 Jul 2018

KVYS 171115Z AUTO 35003KT 10SM CLR 19/16 A3005 RMK AO2 T01930163
KVYS 171055Z AUTO 36007KT 10SM CLR 20/16 A3005 RMK AO2 T01960162
KVYS 171035Z AUTO 35006KT 10SM CLR 19/16 A3004 RMK AO2 T01880161
KVYS 171015Z AUTO 34004KT 10SM CLR 19/16 A3004 RMK AO2 T01940163
KVYS 170955Z AUTO 35006KT 10SM CLR 20/17 A3004 RMK AO2 T01970165
KVYS 170935Z AUTO 35007KT 10SM CLR 20/17 A3003 RMK AO2 T01970165
KVYS 170915Z AUTO 35008KT 10SM CLR 20/17 A3003 RMK AO2 T01990165
KVYS 170855Z AUTO 35007KT 10SM CLR 20/17 A3002 RMK AO2 T02010166
KVYS 170835Z AUTO 35009KT 10SM CLR 20/17 A3003 RMK AO2 T02000166
KVYS 170815Z AUTO 35008KT 10SM CLR 20/17 A3002 RMK AO2 T02010167
KVYS 170755Z AUTO 33005KT 10SM CLR 20/17 A3003 RMK AO2 T01970168
KVYS 170735Z AUTO 34005KT 10SM CLR 20/17 A3003 RMK AO2 T01970170
KVYS 170715Z AUTO 34006KT 10SM CLR 20/17 A3003 RMK AO2 T01960171
KVYS 170655Z AUTO 34006KT 10SM CLR 20/17 A3003 RMK AO2 T02000172
KVYS 170635Z AUTO 33005KT 10SM CLR 20/17 A3003 RMK AO2 T02020173
KVYS 170615Z AUTO 34006KT 10SM CLR 21/18 A3002 RMK AO2 T02050175
KVYS 170555Z AUTO 33006KT 10SM CLR 21/18 A3003 RMK AO2 T02100177 10290 20207 403150207
KVYS 170535Z AUTO 33006KT 10SM CLR 21/18 A3002 RMK AO2 T02070176
KVYS 170515Z AUTO 34006KT 10SM CLR 21/18 A3002 RMK AO2 T02100179
KVYS 170455Z AUTO 34005KT 10SM CLR 21/18 A3002 RMK AO2 T02100182
KVYS 170435Z AUTO 33006KT 10SM CLR 21/19 A3002 RMK AO2 T02120185
KVYS 170415Z AUTO 33005KT 10SM CLR 21/19 A3002 RMK AO2 T02140187
KVYS 170355Z AUTO 33004KT 10SM CLR 22/19 A3002 RMK AO2 T02190190
KVYS 170335Z AUTO 33005KT 10SM CLR 22/19 A3002 RMK AO2 T02220189
KVYS 170315Z AUTO 33005KT 10SM CLR 23/19 A3002 RMK AO2 T02260190
KVYS 170255Z AUTO 34005KT 10SM CLR 23/19 A3001 RMK AO2 T02330192
KVYS 170235Z AUTO 34006KT 10SM CLR 24/20 A3001 RMK AO2 T02380195
KVYS 170215Z AUTO 33006KT 10SM CLR 24/20 A3000 RMK AO2 T02410198
KVYS 170155Z AUTO 33003KT 10SM CLR 25/21 A2999 RMK AO2 T02450205
KVYS 170135Z AUTO 33003KT 10SM CLR 25/21 A2998 RMK AO2 T02470207
KVYS 170115Z AUTO 33004KT 10SM CLR 26/20 A2997 RMK AO2 T02590201
KVYS 170055Z AUTO 34006KT 10SM CLR 27/20 A2997 RMK AO2 T02680196
KVYS 170035Z AUTO 34007KT 10SM CLR 28/20 A2996 RMK AO2 T02770196
KVYS 170015Z AUTO 35009KT 10SM CLR 29/19 A2995 RMK AO2 T02850194
KVYS 162355Z AUTO 34011KT 10SM CLR 29/20 A2995 RMK AO2 60011 T02910200 10315 20248
KVYS 162335Z AUTO 34010KT 10SM CLR 30/20 A2995 RMK AO2 T02950195
KVYS 162315Z AUTO 34011KT 10SM SCT029 SCT037 30/22 A2994 RMK AO2 T03010223
KVYS 162255Z AUTO 32012G16KT 10SM SCT031 30/24 A2994 RMK AO2 T03040236
KVYS 162235Z AUTO 32011KT 10SM SCT031 31/24 A2993 RMK AO2 T03080237
KVYS 162215Z AUTO 33011G16KT 10SM SCT033 31/23 A2993 RMK AO2 T03100234
KVYS 162155Z AUTO 33010KT 10SM SCT033 31/24 A2993 RMK AO2 T03120237
KVYS 162135Z AUTO 32011KT 10SM SCT031 SCT039 SCT049 31/23 A2993 RMK AO2 T03110234
KVYS 162115Z AUTO 33010KT 10SM SCT029 SCT037 SCT049 31/24 A2993 RMK AO2 T03060241
KVYS 162055Z AUTO 32010KT 10SM SCT029 SCT037 SCT045 31/25 A2994 RMK AO2 60011 T03130246
KVYS 162035Z AUTO 35010KT 10SM SCT029 SCT039 SCT046 31/25 A2994 RMK AO2 T03130246
KVYS 162015Z AUTO 35009KT 10SM CLR 31/23 A2994 RMK AO2 T03100233
KVYS 161955Z AUTO 35008KT 10SM CLR 31/21 A2994 RMK AO2 T03080214
KVYS 161935Z AUTO 33009G14KT 10SM SCT028 SCT034 31/25 A2995 RMK AO2 T03060248
KVYS 161915Z AUTO 28005KT 10SM CLR 29/24 A2996 RMK AO2 T02930242
KVYS 161855Z AUTO 26006KT 10SM CLR 28/24 A2996 RMK AO2 P0011 T02800243
KVYS 161835Z AUTO 26005KT 10SM SCT040 SCT048 SCT060 27/23 A2997 RMK AO2 LTG DSNT S P0011 T02650232
KVYS 161815Z AUTO 32006G12KT 2SM -RA BKN036 OVC050 25/23 A2996 RMK AO2 P0011 T02500232
KVYS 161755Z AUTO 35017G25KT 10SM BKN034 BKN047 BKN050 27/21 A2997 RMK AO2 T02700208 10315 20243
KVYS 161735Z AUTO 31009KT 10SM SCT030 SCT038 SCT050 31/23 A2997 RMK AO2 LTG DSNT N T03110234
KVYS 161715Z AUTO 31004G08KT 10SM SCT027 SCT044 SCT055 30/24 A2997 RMK AO2 T03000236
KVYS 161655Z AUTO 31007KT 10SM SCT025 SCT048 SCT050 30/24 A2997 RMK AO2 T03010236
KVYS 161635Z AUTO 30008KT 10SM SCT023 SCT028 SCT038 30/24 A2997 RMK AO2 T02980240
KVYS 161615Z AUTO 31005KT 10SM SCT023 SCT027 BKN041 29/24 A2998 RMK AO2 T02930244
KVYS 161555Z AUTO 31004KT 10SM SCT020 SCT025 BKN065 30/24 A2998 RMK AO2 T02950242
KVYS 161535Z AUTO 30005KT 10SM SCT020 BKN024 BKN034 29/24 A2998 RMK AO2 T02880241
KVYS 161515Z AUTO 34005KT 10SM SCT018 SCT023 SCT029 28/24 A2998 RMK AO2 T02840239
KVYS 161455Z AUTO 28006KT 10SM SCT021 SCT029 BKN034 29/24 A2998 RMK AO2 T02890244
KVYS 161435Z AUTO 29005KT 10SM SCT015 SCT023 BKN030 29/24 A2998 RMK AO2 T02850241
KVYS 161415Z AUTO 29005KT 10SM SCT015 28/24 A2998 RMK AO2 T02780240
KVYS 161355Z AUTO 00000KT 10SM SCT023 28/24 A2997 RMK AO2 T02750241
KVYS 161335Z AUTO 31005KT 10SM SCT023 27/24 A2997 RMK AO2 T02700240
KVYS 161315Z AUTO 31003KT 10SM SCT023 27/24 A2997 RMK AO2 T02650241
KVYS 161255Z AUTO 31003KT 10SM CLR 26/24 A2996 RMK AO2 T02610243
KVYS 161235Z AUTO 00000KT 7SM CLR 25/24 A2996 RMK AO2 T02540238
KVYS 161215Z AUTO 00000KT 5SM BR CLR 25/24 A2997 RMK AO2 T02460236
KVYS 161155Z AUTO 00000KT 4SM BR CLR 24/23 A2996 RMK AO2 T02420234 10255 20230
KVYS 161135Z AUTO 00000KT 4SM BR CLR 24/23 A2996 RMK AO2 T02360229
KVYS 161115Z AUTO 00000KT 7SM CLR 24/23 A2996 RMK AO2 T02360228
KVYS 161055Z AUTO 00000KT 4SM BR CLR 23/23 A2995 RMK AO2 T02320225
KVYS 161035Z AUTO 29004KT 7SM SCT090 24/23 A2996 RMK AO2 T02360227
KVYS 161015Z AUTO 00000KT 7SM SCT044 SCT070 OVC090 24/23 A2994 RMK AO2 T02410231
KVYS 160955Z AUTO 00000KT 7SM SCT026 BKN060 OVC090 24/23 A2995 RMK AO2 T02410231
KVYS 160935Z AUTO 30004KT 7SM SCT024 BKN033 OVC095 24/23 A2995 RMK AO2 T02380230
KVYS 160915Z AUTO 33004KT 7SM SCT024 BKN095 24/23 A2994 RMK AO2 T02370230
KVYS 160855Z AUTO 00000KT 7SM CLR 24/23 A2995 RMK AO2 T02390232
KVYS 160835Z AUTO 30004KT 5SM BR CLR 24/23 A2995 RMK AO2 T02390233
KVYS 160815Z AUTO 00000KT 2 1/2SM BR SCT003 24/23 A2995 RMK AO2 T02370232
KVYS 160755Z AUTO 27003KT 3/4SM BR OVC003 24/24 A2995 RMK AO2 T02410236
KVYS 160735Z AUTO 28003KT 5SM BR SCT003 24/23 A2996 RMK AO2 T02380232
KVYS 160715Z AUTO 00000KT 5SM BR SCT003 24/23 A2995 RMK AO2 T02400233
KVYS 160655Z AUTO 20003KT 4SM BR SCT003 25/24 A2996 RMK AO2 T02470240
KVYS 160635Z AUTO 00000KT 10SM CLR 25/24 A2996 RMK AO2 T02500236
KVYS 160615Z AUTO 00000KT 7SM CLR 25/24 A2996 RMK AO2 T02490241
KVYS 160555Z AUTO 00000KT 10SM CLR 25/24 A2997 RMK AO2 T02510238 10310 20250 403200207
KVYS 160535Z AUTO 00000KT 10SM CLR 25/24 A2996 RMK AO2 T02510238
KVYS 160515Z AUTO 00000KT 10SM CLR 26/24 A2997 RMK AO2 T02600242
KVYS 160455Z AUTO 00000KT 10SM CLR 26/24 A2997 RMK AO2 T02600242
KVYS 160435Z AUTO 00000KT 10SM CLR 26/24 A2997 RMK AO2 T02620239
KVYS 160415Z AUTO 00000KT 10SM CLR 27/25 A2996 RMK AO2 T02700245
KVYS 160355Z AUTO 00000KT 10SM CLR 27/24 A2997 RMK AO2 T02650242
KVYS 160335Z AUTO 00000KT 10SM CLR 27/24 A2996 RMK AO2 T02660240
KVYS 160315Z AUTO 00000KT 10SM CLR 28/24 A2996 RMK AO2 T02750241
KVYS 160255Z AUTO 00000KT 10SM CLR 28/24 A2996 RMK AO2 T02760241
KVYS 160235Z AUTO 00000KT 10SM CLR 27/24 A2996 RMK AO2 T02730242
KVYS 160215Z AUTO 00000KT 10SM CLR 28/25 A2994 RMK AO2 T02750245
KVYS 160155Z AUTO 26003KT 10SM CLR 28/24 A2994 RMK AO2 T02750242
KVYS 160135Z AUTO 00000KT 10SM CLR 29/24 A2993 RMK AO2 T02860243
KVYS 160115Z AUTO 00000KT 10SM CLR 29/25 A2992 RMK AO2 T02890245
KVYS 160055Z AUTO 00000KT 10SM CLR 30/24 A2992 RMK AO2 T02990243
KVYS 160035Z AUTO 00000KT 10SM CLR 30/25 A2993 RMK AO2 T02970249
KVYS 160015Z AUTO 22003KT 10SM CLR 31/24 A2993 RMK AO2 T03080243
KVYS 152355Z AUTO 21003KT 10SM CLR 31/24 A2992 RMK AO2 T03080239 10320 20296